Time;durP1;ratioP1;P1;durP2;ratioP2;P2;SDS_P1;SDS_P2;PMS_P1;PMS_P2;Temp;Humidity;BMP_temperature;BMP_pressure;BME280_temperature;BME280_humidity;BME280_pressure;Samples;Min_cycle;Max_cycle;Signal;HPM_P1;HPM_P2
2023/11/17 00:00:19;;;;;;;12.80;4.27;;;4.00;99.90;;;;;;4222032;28;20986;-82
2023/11/17 00:02:20;;;;;;;9.47;4.30;;;4.00;99.90;;;;;;4224347;28;20450;-83
2023/11/17 00:04:22;;;;;;;7.93;4.53;;;3.90;99.90;;;;;;4219587;28;20449;-82
2023/11/17 00:06:25;;;;;;;7.43;4.17;;;3.90;99.90;;;;;;4229555;28;20978;-81
2023/11/17 00:08:28;;;;;;;11.13;4.47;;;3.90;99.90;;;;;;4227891;28;20945;-81
2023/11/17 00:10:30;;;;;;;8.43;4.63;;;3.80;99.90;;;;;;4214006;28;20437;-81
2023/11/17 00:12:32;;;;;;;8.37;4.77;;;3.90;99.90;;;;;;4214414;28;20454;-82
2023/11/17 00:14:34;;;;;;;11.30;4.50;;;3.80;99.90;;;;;;4217546;28;20994;-82
2023/11/17 00:16:37;;;;;;;7.90;3.93;;;3.80;99.90;;;;;;4220334;28;20511;-82
2023/11/17 00:18:39;;;;;;;7.43;4.90;;;4.00;99.90;;;;;;4217771;28;20541;-81
2023/11/17 00:20:41;;;;;;;9.03;4.60;;;3.70;99.90;;;;;;4218709;28;20490;-82
2023/11/17 00:22:43;;;;;;;8.43;4.43;;;3.70;99.90;;;;;;4224108;27;20525;-82
2023/11/17 00:24:45;;;;;;;7.93;4.67;;;3.70;99.90;;;;;;4218991;28;20447;-82
2023/11/17 00:26:47;;;;;;;9.67;4.60;;;3.70;99.90;;;;;;4220831;28;20466;-82
2023/11/17 00:28:50;;;;;;;9.70;4.37;;;3.60;99.90;;;;;;4222203;28;20443;-81
2023/11/17 00:30:51;;;;;;;7.17;4.30;;;3.60;99.90;;;;;;4220968;28;20485;-82
2023/11/17 00:32:54;;;;;;;8.60;4.73;;;3.60;99.90;;;;;;4224566;28;21861;-82
2023/11/17 00:34:55;;;;;;;7.43;4.40;;;3.50;99.90;;;;;;4223534;27;20816;-81
2023/11/17 00:37:01;;;;;;;9.97;4.90;;;3.50;99.90;;;;;;4219135;28;20471;-82
2023/11/17 00:39:03;;;;;;;5.70;4.03;;;3.50;99.90;;;;;;4225932;28;20217;-81
2023/11/17 00:41:07;;;;;;;11.00;4.50;;;3.50;99.90;;;;;;4221203;28;20487;-81
2023/11/17 00:43:10;;;;;;;9.63;4.67;;;3.40;99.90;;;;;;4219264;28;20463;-82
2023/11/17 00:45:12;;;;;;;8.77;4.50;;;3.60;99.90;;;;;;4218237;28;20449;-82
2023/11/17 00:47:15;;;;;;;8.37;4.73;;;3.40;99.90;;;;;;4222117;27;20472;-82
2023/11/17 00:49:18;;;;;;;8.20;4.47;;;3.40;99.90;;;;;;4223261;28;20443;-82
2023/11/17 00:51:21;;;;;;;8.17;4.47;;;3.40;99.90;;;;;;4217644;28;20872;-81
2023/11/17 00:53:28;;;;;;;10.67;4.77;;;3.30;99.90;;;;;;4224180;28;20440;-82
2023/11/17 00:55:30;;;;;;;8.07;4.57;;;3.30;99.90;;;;;;4222327;28;20450;-82
2023/11/17 00:57:33;;;;;;;7.53;4.60;;;3.20;99.90;;;;;;4218950;28;20515;-82
2023/11/17 00:59:35;;;;;;;10.97;4.60;;;3.20;99.90;;;;;;4221551;28;20452;-81
2023/11/17 01:01:38;;;;;;;8.33;4.70;;;3.20;99.90;;;;;;4216769;28;20474;-82
2023/11/17 01:03:40;;;;;;;6.93;3.90;;;3.20;99.90;;;;;;4221310;28;20439;-82
2023/11/17 01:05:43;;;;;;;10.03;5.10;;;3.20;99.90;;;;;;4216938;28;20528;-81
2023/11/17 01:07:45;;;;;;;9.93;5.20;;;3.10;99.90;;;;;;4221918;28;20447;-81
2023/11/17 01:09:47;;;;;;;8.30;4.70;;;3.30;99.90;;;;;;4220124;28;20485;-82
2023/11/17 01:11:49;;;;;;;14.57;5.70;;;3.20;99.90;;;;;;4220688;28;20492;-82
2023/11/17 01:13:51;;;;;;;13.13;5.53;;;3.60;99.90;;;;;;4224002;28;20947;-82
2023/11/17 01:15:53;;;;;;;10.93;6.03;;;3.20;99.90;;;;;;4219243;28;22083;-81
2023/11/17 01:17:55;;;;;;;11.77;5.40;;;3.10;99.90;;;;;;4219845;28;20468;-82
2023/11/17 01:19:57;;;;;;;11.07;6.50;;;3.20;99.90;;;;;;4223292;28;20515;-81
2023/11/17 01:22:01;;;;;;;12.37;6.63;;;3.10;99.90;;;;;;4219072;28;20551;-81
2023/11/17 01:24:03;;;;;;;13.30;6.57;;;3.10;99.90;;;;;;4224527;28;20438;-82
2023/11/17 01:26:05;;;;;;;16.70;6.87;;;3.10;99.90;;;;;;4220660;28;20562;-81
2023/11/17 01:28:08;;;;;;;11.83;6.73;;;3.20;99.90;;;;;;4223912;28;20447;-81
2023/11/17 01:30:12;;;;;;;9.90;6.13;;;3.20;99.90;;;;;;4224925;28;20530;-81
2023/11/17 01:32:14;;;;;;;10.80;6.23;;;3.10;99.90;;;;;;4216508;28;20889;-81
2023/11/17 01:34:16;;;;;;;13.13;6.87;;;3.10;99.90;;;;;;4221398;28;20451;-81
2023/11/17 01:36:17;;;;;;;13.90;6.50;;;3.10;99.90;;;;;;4223541;28;20991;-81
2023/11/17 01:38:21;;;;;;;12.80;6.80;;;3.20;99.90;;;;;;4228738;28;20454;-81
2023/11/17 01:40:23;;;;;;;12.67;6.60;;;3.10;99.90;;;;;;4223998;28;20507;-80
2023/11/17 01:42:25;;;;;;;11.63;6.87;;;3.20;99.90;;;;;;4224697;28;20513;-81
2023/11/17 01:44:28;;;;;;;13.17;7.77;;;3.20;99.90;;;;;;4223181;28;20811;-81
2023/11/17 01:46:30;;;;;;;13.63;6.87;;;3.20;99.90;;;;;;4224931;28;20458;-81
2023/11/17 01:48:33;;;;;;;13.70;6.73;;;3.30;99.90;;;;;;4236293;28;20453;-82
2023/11/17 01:50:35;;;;;;;10.93;6.70;;;3.30;99.90;;;;;;4224789;28;21076;-81
2023/11/17 01:52:40;;;;;;;11.57;6.57;;;3.40;99.90;;;;;;4228259;28;20506;-81
2023/11/17 01:54:46;;;;;;;10.30;6.33;;;3.40;99.90;;;;;;4224395;28;20478;-80
2023/11/17 01:56:50;;;;;;;10.63;6.47;;;3.30;99.90;;;;;;4220685;28;21017;-81
2023/11/17 01:58:53;;;;;;;12.10;6.13;;;3.30;99.90;;;;;;4226418;28;20439;-81
2023/11/17 02:00:55;;;;;;;11.90;5.77;;;3.30;99.90;;;;;;4227126;28;21257;-81
2023/11/17 02:02:59;;;;;;;13.33;6.50;;;3.30;99.90;;;;;;4227489;28;20448;-81
2023/11/17 02:05:01;;;;;;;13.97;6.43;;;3.20;99.90;;;;;;4224778;28;20916;-81
2023/11/17 02:07:12;;;;;;;12.77;6.20;;;3.20;99.90;;;;;;4229073;28;20470;-81
2023/11/17 02:09:29;;;;;;;13.13;7.47;;;3.20;99.90;;;;;;4229456;28;20559;-81
2023/11/17 02:11:37;;;;;;;12.00;6.20;;;3.20;99.90;;;;;;4228456;28;20534;-81
2023/11/17 02:13:42;;;;;;;9.93;6.27;;;3.20;99.90;;;;;;4230943;28;20445;-81
2023/11/17 02:15:45;;;;;;;13.33;6.17;;;3.10;99.90;;;;;;4231750;27;20473;-82
2023/11/17 02:17:49;;;;;;;12.00;6.50;;;3.10;99.90;;;;;;4228390;28;20578;-81
2023/11/17 02:19:52;;;;;;;12.70;7.20;;;3.10;99.90;;;;;;4227932;28;20534;-81
2023/11/17 02:21:58;;;;;;;11.77;6.30;;;3.10;99.90;;;;;;4228803;28;20478;-81
2023/11/17 02:24:06;;;;;;;13.90;6.90;;;3.10;99.90;;;;;;4225165;28;20450;-81
2023/11/17 02:26:19;;;;;;;13.13;6.53;;;3.10;99.90;;;;;;4225930;28;20473;-81
2023/11/17 02:28:34;;;;;;;10.33;5.13;;;3.10;99.90;;;;;;4226137;28;20818;-81
2023/11/17 02:30:39;;;;;;;11.03;6.20;;;3.00;99.90;;;;;;4226018;28;20839;-81
2023/11/17 02:32:40;;;;;;;10.23;5.97;;;3.10;99.90;;;;;;4224139;28;20956;-82
2023/11/17 02:34:44;;;;;;;10.57;5.97;;;3.00;99.90;;;;;;4224495;28;20557;-82
2023/11/17 02:36:48;;;;;;;12.20;6.00;;;3.00;99.90;;;;;;4225983;27;20562;-81
2023/11/17 02:38:51;;;;;;;12.07;5.80;;;3.00;99.90;;;;;;4225385;28;20466;-81
2023/11/17 02:40:55;;;;;;;10.47;5.87;;;3.00;99.90;;;;;;4226405;28;20577;-82
2023/11/17 02:42:57;;;;;;;11.57;5.87;;;3.00;99.90;;;;;;4231143;28;20452;-80
2023/11/17 02:45:00;;;;;;;11.57;6.03;;;2.90;99.90;;;;;;4224719;27;20499;-80
2023/11/17 02:47:04;;;;;;;11.90;6.00;;;2.90;99.90;;;;;;4230899;27;20953;-81
2023/11/17 02:49:10;;;;;;;10.80;6.07;;;2.90;99.90;;;;;;4230975;28;20496;-81
2023/11/17 02:51:18;;;;;;;11.40;6.33;;;2.90;99.90;;;;;;4226683;28;20521;-81
2023/11/17 02:53:24;;;;;;;11.13;6.40;;;2.90;99.90;;;;;;4221880;28;20461;-81
2023/11/17 02:55:27;;;;;;;13.37;5.97;;;2.90;99.90;;;;;;4220240;27;20439;-81
2023/11/17 02:57:31;;;;;;;10.50;6.10;;;3.00;99.90;;;;;;4221446;28;20439;-82
2023/11/17 02:59:35;;;;;;;9.50;5.70;;;3.00;99.90;;;;;;4229316;28;20515;-81
2023/11/17 03:01:40;;;;;;;12.47;5.83;;;3.00;99.90;;;;;;4219760;28;20471;-82
2023/11/17 03:03:45;;;;;;;9.80;5.57;;;2.90;99.90;;;;;;4227619;28;20957;-82
2023/11/17 03:05:48;;;;;;;10.33;5.77;;;3.10;99.90;;;;;;4222394;28;20462;-81
2023/11/17 03:07:49;;;;;;;11.07;5.80;;;3.30;99.90;;;;;;4221958;28;20993;-81
2023/11/17 03:09:52;;;;;;;9.50;5.70;;;3.10;99.90;;;;;;4220352;28;20516;-81
2023/11/17 03:11:54;;;;;;;8.83;5.30;;;3.10;99.90;;;;;;4222095;28;20475;-82
2023/11/17 03:13:56;;;;;;;10.80;5.93;;;3.10;99.90;;;;;;4226502;28;20944;-81
2023/11/17 03:15:58;;;;;;;11.00;6.30;;;3.10;99.90;;;;;;4227791;27;20482;-82
2023/11/17 03:18:00;;;;;;;11.43;5.93;;;3.10;99.90;;;;;;4226831;28;20446;-82
2023/11/17 03:20:04;;;;;;;11.13;6.07;;;3.10;99.90;;;;;;4221977;28;20504;-81
2023/11/17 03:22:06;;;;;;;11.03;5.90;;;3.10;99.90;;;;;;4220753;28;20467;-81
2023/11/17 03:24:14;;;;;;;10.53;6.00;;;3.60;99.90;;;;;;4220524;28;20447;-81
2023/11/17 03:26:16;;;;;;;12.37;5.93;;;3.20;99.90;;;;;;4221780;28;20463;-82
2023/11/17 03:28:17;;;;;;;10.20;5.07;;;3.20;99.90;;;;;;4229921;28;20832;-81
2023/11/17 03:30:20;;;;;;;8.77;6.00;;;3.30;99.90;;;;;;4220348;28;20452;-81
2023/11/17 03:32:21;;;;;;;8.93;5.37;;;3.20;99.90;;;;;;4223664;27;20470;-81
2023/11/17 03:34:28;;;;;;;9.40;6.13;;;3.20;99.90;;;;;;4219475;28;20485;-81
2023/11/17 03:36:31;;;;;;;10.33;5.90;;;3.50;99.90;;;;;;4225787;28;20563;-81
2023/11/17 03:38:33;;;;;;;11.20;6.47;;;3.20;99.90;;;;;;4225780;28;20531;-81
2023/11/17 03:40:36;;;;;;;12.80;6.57;;;3.20;99.90;;;;;;4222699;28;20438;-82
2023/11/17 03:42:38;;;;;;;10.00;6.23;;;3.20;99.90;;;;;;4227211;28;20469;-81
2023/11/17 03:44:39;;;;;;;11.97;6.57;;;3.40;99.90;;;;;;4223540;28;20587;-81
2023/11/17 03:46:45;;;;;;;14.57;7.07;;;3.20;99.90;;;;;;4223360;27;20465;-81
2023/11/17 03:48:49;;;;;;;10.77;6.77;;;3.20;99.90;;;;;;4219934;28;20447;-81
2023/11/17 03:50:51;;;;;;;10.87;6.67;;;3.20;99.90;;;;;;4225707;28;20443;-81
2023/11/17 03:52:55;;;;;;;13.60;6.97;;;3.30;99.90;;;;;;4226061;28;20455;-82
2023/11/17 03:54:57;;;;;;;10.07;6.20;;;3.20;99.90;;;;;;4228664;28;20454;-81
2023/11/17 03:57:00;;;;;;;10.87;5.70;;;3.20;99.90;;;;;;4225468;28;20473;-81
2023/11/17 03:59:03;;;;;;;9.90;6.20;;;2.80;99.90;;;;;;4222940;28;20968;-81
2023/11/17 04:01:06;;;;;;;11.67;6.70;;;3.30;99.90;;;;;;4228750;28;20507;-82
2023/11/17 04:03:08;;;;;;;11.60;6.90;;;3.20;99.90;;;;;;4234077;28;20455;-81
2023/11/17 04:05:13;;;;;;;10.13;6.43;;;3.20;99.90;;;;;;4241692;27;20501;-82
2023/11/17 04:07:15;;;;;;;10.00;6.20;;;3.30;99.90;;;;;;4236931;28;20454;-82
2023/11/17 04:09:20;;;;;;;10.77;6.70;;;3.50;99.90;;;;;;4237642;28;20492;-82
2023/11/17 04:11:22;;;;;;;11.33;6.63;;;3.70;99.90;;;;;;4240545;28;20914;-81
2023/11/17 04:13:25;;;;;;;9.93;6.30;;;3.30;99.90;;;;;;4243077;28;20438;-83
2023/11/17 04:15:27;;;;;;;10.13;6.40;;;3.30;99.90;;;;;;4234149;28;20471;-82
2023/11/17 04:17:30;;;;;;;9.20;6.30;;;3.30;99.90;;;;;;4232460;27;20503;-82
2023/11/17 04:19:32;;;;;;;9.73;6.53;;;3.30;99.90;;;;;;4229624;28;20797;-82
2023/11/17 04:21:34;;;;;;;11.87;6.33;;;3.30;99.90;;;;;;4229711;28;20486;-82
2023/11/17 04:23:35;;;;;;;9.70;5.70;;;3.30;99.90;;;;;;4231544;28;20469;-82
2023/11/17 04:25:39;;;;;;;8.23;5.70;;;3.30;99.90;;;;;;4230635;28;20982;-82
2023/11/17 04:27:41;;;;;;;10.43;6.20;;;3.30;99.90;;;;;;4232034;28;20210;-82
2023/11/17 04:29:43;;;;;;;8.80;5.93;;;3.30;99.90;;;;;;4229124;27;20460;-82
2023/11/17 04:31:45;;;;;;;9.70;5.73;;;3.30;99.90;;;;;;4232141;28;20462;-81
2023/11/17 04:33:48;;;;;;;11.37;6.43;;;3.30;99.90;;;;;;4232469;28;20856;-82
2023/11/17 04:35:51;;;;;;;9.50;6.47;;;3.30;99.90;;;;;;4223913;28;20478;-82
2023/11/17 04:37:54;;;;;;;9.37;6.37;;;3.80;99.90;;;;;;4226562;28;20441;-82
2023/11/17 04:39:56;;;;;;;10.70;6.43;;;3.30;99.90;;;;;;4224303;28;20826;-81
2023/11/17 04:42:00;;;;;;;9.57;6.40;;;3.30;99.90;;;;;;4225879;28;20471;-82
2023/11/17 04:44:03;;;;;;;9.97;6.50;;;3.30;99.90;;;;;;4224820;28;20503;-82
2023/11/17 04:46:06;;;;;;;9.87;6.57;;;3.30;99.90;;;;;;4220498;27;21035;-82
2023/11/17 04:48:08;;;;;;;9.50;6.20;;;3.30;99.90;;;;;;4219113;28;20534;-82
2023/11/17 04:50:11;;;;;;;11.17;6.47;;;3.30;99.90;;;;;;4221565;28;20438;-83
2023/11/17 04:52:13;;;;;;;12.93;7.73;;;3.30;99.90;;;;;;4218227;28;20465;-81
2023/11/17 04:54:15;;;;;;;9.77;6.73;;;3.30;99.90;;;;;;4221231;28;20990;-82
2023/11/17 04:56:17;;;;;;;10.60;6.87;;;3.30;99.90;;;;;;4218412;28;20557;-82
2023/11/17 04:58:20;;;;;;;9.50;6.10;;;3.30;99.90;;;;;;4222794;28;20443;-81
2023/11/17 05:00:23;;;;;;;9.40;6.30;;;3.30;99.90;;;;;;4217241;28;20509;-82
2023/11/17 05:02:25;;;;;;;9.67;6.43;;;3.30;99.90;;;;;;4217808;28;20475;-81
2023/11/17 05:04:26;;;;;;;10.40;6.73;;;3.30;99.90;;;;;;4217640;28;20431;-82
2023/11/17 05:06:28;;;;;;;8.97;6.00;;;3.30;99.90;;;;;;4219706;28;20470;-82
2023/11/17 05:08:32;;;;;;;8.00;5.50;;;3.30;99.90;;;;;;4222468;28;20438;-82
2023/11/17 05:10:34;;;;;;;10.37;5.30;;;3.30;99.90;;;;;;4218371;28;20879;-82
2023/11/17 05:12:36;;;;;;;7.73;4.97;;;3.50;99.90;;;;;;4222266;28;20533;-82
2023/11/17 05:14:40;;;;;;;5.57;4.33;;;3.30;99.90;;;;;;4222090;28;20474;-82
2023/11/17 05:16:43;;;;;;;7.57;5.07;;;3.40;99.90;;;;;;4223249;28;20821;-81
2023/11/17 05:18:43;;;;;;;5.87;4.07;;;3.30;99.90;;;;;;4221474;28;20457;-81
2023/11/17 05:20:45;;;;;;;5.70;4.30;;;3.30;99.90;;;;;;4221352;28;20507;-81
2023/11/17 05:22:48;;;;;;;7.00;4.50;;;3.30;99.90;;;;;;4222765;28;20263;-81
2023/11/17 05:24:53;;;;;;;7.80;4.93;;;3.30;99.90;;;;;;4221697;28;20514;-81
2023/11/17 05:26:55;;;;;;;5.33;3.67;;;3.10;99.90;;;;;;4226340;28;20491;-81
2023/11/17 05:28:57;;;;;;;9.47;4.43;;;3.30;99.90;;;;;;4226626;28;20475;-82
2023/11/17 05:31:02;;;;;;;6.93;4.27;;;3.20;99.90;;;;;;4223851;28;20475;-81
2023/11/17 05:33:03;;;;;;;5.83;4.10;;;3.20;99.90;;;;;;4218290;28;20468;-82
2023/11/17 05:35:06;;;;;;;6.53;4.50;;;3.20;99.90;;;;;;4219808;28;20443;-81
2023/11/17 05:37:08;;;;;;;7.00;4.60;;;3.20;99.90;;;;;;4220885;28;21202;-81
2023/11/17 05:39:11;;;;;;;6.97;4.57;;;3.50;99.90;;;;;;4219655;28;20526;-81
2023/11/17 05:41:13;;;;;;;7.10;4.67;;;3.30;99.90;;;;;;4222467;28;20442;-81
2023/11/17 05:43:15;;;;;;;8.23;5.10;;;3.20;99.90;;;;;;4220118;28;20476;-81
2023/11/17 05:45:20;;;;;;;6.37;4.40;;;3.20;99.90;;;;;;4220149;28;20521;-81
2023/11/17 05:47:23;;;;;;;8.90;5.53;;;3.30;99.90;;;;;;4217596;28;20500;-81
2023/11/17 05:49:25;;;;;;;10.37;5.37;;;3.30;99.90;;;;;;4221260;28;22418;-81
2023/11/17 05:51:27;;;;;;;6.27;4.53;;;3.60;99.90;;;;;;4223257;28;21018;-81
2023/11/17 05:53:29;;;;;;;6.47;4.40;;;3.30;99.90;;;;;;4215597;28;20438;-81
2023/11/17 05:55:31;;;;;;;7.73;4.50;;;3.40;99.90;;;;;;4221392;28;20448;-81
2023/11/17 05:57:32;;;;;;;7.70;4.70;;;3.30;99.90;;;;;;4226581;28;20538;-80
2023/11/17 05:59:34;;;;;;;7.23;4.20;;;3.30;99.90;;;;;;4219348;28;20443;-81
2023/11/17 06:01:37;;;;;;;9.23;5.03;;;3.20;99.90;;;;;;4224219;28;20259;-81
2023/11/17 06:03:40;;;;;;;5.83;4.10;;;3.30;99.90;;;;;;4224093;28;20832;-82
2023/11/17 06:05:42;;;;;;;6.13;4.00;;;3.30;99.90;;;;;;4217322;28;20463;-81
2023/11/17 06:07:44;;;;;;;9.07;4.90;;;3.30;99.90;;;;;;4227095;28;20435;-81
2023/11/17 06:09:48;;;;;;;8.33;5.10;;;3.30;99.90;;;;;;4226135;28;20983;-81
2023/11/17 06:11:49;;;;;;;6.77;4.57;;;3.40;99.90;;;;;;4222460;28;20491;-82
2023/11/17 06:13:51;;;;;;;6.50;4.30;;;3.30;99.90;;;;;;4224601;27;20838;-79
2023/11/17 06:15:55;;;;;;;7.57;5.00;;;3.20;99.90;;;;;;4221701;28;20557;-79
2023/11/17 06:17:57;;;;;;;8.00;4.90;;;3.30;99.90;;;;;;4222248;28;20509;-78
2023/11/17 06:20:03;;;;;;;9.47;5.33;;;3.20;99.90;;;;;;4217963;28;20459;-79
2023/11/17 06:22:06;;;;;;;8.33;5.07;;;3.20;99.90;;;;;;4221856;28;20473;-80
2023/11/17 06:24:09;;;;;;;7.97;5.20;;;3.40;99.90;;;;;;4219772;28;20449;-80
2023/11/17 06:26:11;;;;;;;7.50;4.87;;;3.00;99.90;;;;;;4218384;28;20476;-78
2023/11/17 06:28:13;;;;;;;7.00;4.57;;;3.20;99.90;;;;;;4218345;28;20898;-79
2023/11/17 06:30:18;;;;;;;7.53;4.20;;;3.20;99.90;;;;;;4216963;28;20486;-81
2023/11/17 06:32:22;;;;;;;10.47;5.40;;;3.20;99.90;;;;;;4226402;28;20449;-81
2023/11/17 06:34:27;;;;;;;9.57;5.20;;;3.30;99.90;;;;;;4225816;28;20941;-78
2023/11/17 06:36:30;;;;;;;8.20;4.77;;;3.30;99.90;;;;;;4221603;28;20523;-81
2023/11/17 06:38:33;;;;;;;9.07;5.30;;;3.30;99.90;;;;;;4227317;28;20468;-79
2023/11/17 06:40:35;;;;;;;8.07;5.00;;;3.50;99.90;;;;;;4225917;28;20436;-80
2023/11/17 06:42:38;;;;;;;9.67;5.10;;;3.40;99.90;;;;;;4216636;28;20510;-78
2023/11/17 06:44:41;;;;;;;11.77;5.83;;;3.30;99.90;;;;;;4219936;28;20483;-80
2023/11/17 06:46:45;;;;;;;9.80;5.43;;;3.30;99.90;;;;;;4224911;28;20471;-79
2023/11/17 06:48:47;;;;;;;7.37;4.53;;;3.30;99.90;;;;;;4222006;28;20472;-79
2023/11/17 06:50:49;;;;;;;6.63;4.40;;;3.30;99.90;;;;;;4225738;28;21015;-80
2023/11/17 06:52:53;;;;;;;9.27;5.00;;;3.40;99.90;;;;;;4223810;28;20458;-80
2023/11/17 06:54:54;;;;;;;9.83;5.20;;;3.60;99.90;;;;;;4225602;28;21801;-79
2023/11/17 06:56:56;;;;;;;7.60;4.33;;;3.30;99.90;;;;;;4221147;28;20458;-82
2023/11/17 06:58:59;;;;;;;6.37;4.47;;;3.30;99.90;;;;;;4226248;28;20450;-79
2023/11/17 07:01:01;;;;;;;8.50;4.73;;;3.40;99.90;;;;;;4225854;28;20478;-81
2023/11/17 07:03:03;;;;;;;11.23;4.83;;;3.50;99.90;;;;;;4221162;28;20979;-80
2023/11/17 07:05:07;;;;;;;9.00;4.60;;;3.30;99.90;;;;;;4219413;27;20470;-78
2023/11/17 07:07:09;;;;;;;6.57;4.27;;;3.30;99.90;;;;;;4219328;28;20519;-80
2023/11/17 07:09:16;;;;;;;12.33;4.97;;;3.40;99.90;;;;;;4221504;28;20516;-80
2023/11/17 07:11:18;;;;;;;7.60;4.57;;;3.40;99.90;;;;;;4224863;27;20950;-79
2023/11/17 07:13:20;;;;;;;7.77;4.90;;;3.20;99.90;;;;;;4220105;28;20435;-79
2023/11/17 07:15:24;;;;;;;6.37;3.97;;;3.40;99.90;;;;;;4221314;28;20942;-79
2023/11/17 07:17:27;;;;;;;8.70;4.67;;;3.40;99.90;;;;;;4219397;28;20779;-78
2023/11/17 07:19:28;;;;;;;6.93;4.67;;;3.40;99.90;;;;;;4217723;28;20895;-80
2023/11/17 07:21:29;;;;;;;7.43;3.60;;;3.40;99.90;;;;;;4221340;28;20451;-80
2023/11/17 07:23:32;;;;;;;6.27;3.83;;;3.40;99.90;;;;;;4220561;27;20467;-80
2023/11/17 07:25:35;;;;;;;7.87;4.37;;;3.40;99.90;;;;;;4222431;28;20448;-81
2023/11/17 07:27:39;;;;;;;8.63;4.20;;;3.40;99.90;;;;;;4219636;28;20504;-79
2023/11/17 07:29:43;;;;;;;9.57;4.03;;;3.40;99.90;;;;;;4218714;28;20877;-79
2023/11/17 07:31:49;;;;;;;6.93;4.07;;;3.40;99.90;;;;;;4224769;28;20835;-80
2023/11/17 07:33:54;;;;;;;6.93;4.50;;;3.40;99.90;;;;;;4218905;28;20443;-80
2023/11/17 07:35:56;;;;;;;6.30;3.73;;;3.40;99.90;;;;;;4224616;28;20474;-79
2023/11/17 07:37:58;;;;;;;7.23;3.90;;;3.50;99.90;;;;;;4227782;28;20491;-80
2023/11/17 07:40:00;;;;;;;11.77;3.80;;;3.50;99.90;;;;;;4223724;28;20455;-80
2023/11/17 07:42:08;;;;;;;6.63;3.47;;;3.30;99.90;;;;;;4223840;28;20531;-81
2023/11/17 07:44:11;;;;;;;6.23;4.00;;;3.50;99.90;;;;;;4218093;28;20488;-79
2023/11/17 07:46:13;;;;;;;5.03;3.63;;;3.60;99.90;;;;;;4219384;28;20475;-81
2023/11/17 07:48:17;;;;;;;5.83;3.50;;;3.50;99.90;;;;;;4220759;28;20452;-79
2023/11/17 07:50:19;;;;;;;7.27;4.10;;;3.50;99.90;;;;;;4219644;28;20479;-81
2023/11/17 07:52:23;;;;;;;8.57;4.03;;;3.50;99.90;;;;;;4226956;27;20944;-80
2023/11/17 07:54:25;;;;;;;6.67;4.20;;;3.50;99.90;;;;;;4219248;28;20906;-79
2023/11/17 07:56:27;;;;;;;8.07;4.57;;;3.50;99.90;;;;;;4225788;28;21079;-79
2023/11/17 07:58:31;;;;;;;7.53;4.10;;;3.60;99.90;;;;;;4225258;28;20439;-81
2023/11/17 08:00:34;;;;;;;7.07;4.33;;;3.50;99.90;;;;;;4236298;27;20945;-79
2023/11/17 08:02:37;;;;;;;8.10;4.67;;;3.90;99.90;;;;;;4220029;28;20473;-80
2023/11/17 08:04:39;;;;;;;6.70;3.80;;;3.50;99.90;;;;;;4229062;27;20466;-79
2023/11/17 08:06:41;;;;;;;6.83;3.97;;;3.50;99.90;;;;;;4225361;28;20464;-79
2023/11/17 08:08:43;;;;;;;8.27;4.50;;;3.50;99.90;;;;;;4219186;28;20468;-79
2023/11/17 08:10:46;;;;;;;5.77;3.70;;;3.60;99.90;;;;;;4221505;28;20449;-79
2023/11/17 08:12:47;;;;;;;12.97;5.87;;;3.60;99.90;;;;;;4221618;28;20979;-78
2023/11/17 08:14:53;;;;;;;12.07;5.47;;;3.60;99.90;;;;;;4217278;28;20447;-79
2023/11/17 08:16:56;;;;;;;9.53;4.23;;;3.60;99.90;;;;;;4221522;28;20227;-80
2023/11/17 08:18:58;;;;;;;5.93;3.67;;;3.60;99.90;;;;;;4214893;28;21148;-80
2023/11/17 08:21:00;;;;;;;6.37;3.53;;;3.60;99.90;;;;;;4216151;28;20461;-81
2023/11/17 08:23:02;;;;;;;5.63;3.47;;;3.60;99.90;;;;;;4226061;28;20696;-79
2023/11/17 08:25:03;;;;;;;7.93;4.20;;;3.60;99.90;;;;;;4221188;28;20452;-80
2023/11/17 08:27:05;;;;;;;8.60;4.20;;;3.60;99.90;;;;;;4218911;28;20470;-80
2023/11/17 08:29:07;;;;;;;5.43;3.30;;;3.60;99.90;;;;;;4226077;28;20450;-80
2023/11/17 08:31:14;;;;;;;6.37;3.77;;;3.80;99.90;;;;;;4224223;27;20928;-79
2023/11/17 08:33:16;;;;;;;5.57;3.47;;;3.70;99.90;;;;;;4221874;28;20501;-83
2023/11/17 08:35:18;;;;;;;6.27;3.77;;;3.60;99.90;;;;;;4224850;28;20465;-80
2023/11/17 08:37:20;;;;;;;7.70;4.00;;;3.60;99.90;;;;;;4219139;27;20546;-79
2023/11/17 08:39:28;;;;;;;6.60;3.67;;;3.70;99.90;;;;;;4221272;28;20922;-79
2023/11/17 08:41:30;;;;;;;10.97;4.23;;;3.70;99.90;;;;;;4219072;27;20791;-79
2023/11/17 08:43:31;;;;;;;6.50;3.00;;;3.60;99.90;;;;;;4214767;27;20484;-77
2023/11/17 08:45:34;;;;;;;5.57;3.37;;;3.70;99.90;;;;;;4220719;28;20451;-77
2023/11/17 08:47:38;;;;;;;6.93;3.20;;;3.70;99.90;;;;;;4216951;28;20848;-78
2023/11/17 08:49:41;;;;;;;5.37;2.90;;;3.70;99.90;;;;;;4219222;28;21206;-79
2023/11/17 08:51:46;;;;;;;5.23;2.93;;;3.70;99.90;;;;;;4219175;28;20821;-79
2023/11/17 08:53:50;;;;;;;4.70;3.03;;;3.80;99.90;;;;;;4219121;28;20486;-79
2023/11/17 08:55:52;;;;;;;7.90;3.53;;;3.80;99.90;;;;;;4221010;28;20544;-78
2023/11/17 08:57:55;;;;;;;13.53;5.20;;;3.70;99.90;;;;;;4215517;28;20444;-78
2023/11/17 08:59:59;;;;;;;7.10;3.00;;;3.80;99.90;;;;;;4221008;27;20460;-78
2023/11/17 09:02:01;;;;;;;8.47;2.87;;;3.80;99.90;;;;;;4223634;28;20875;-80
2023/11/17 09:04:05;;;;;;;5.47;2.60;;;3.80;99.90;;;;;;4218084;28;20481;-79
2023/11/17 09:06:08;;;;;;;14.07;4.70;;;3.80;99.90;;;;;;4221179;27;20879;-80
2023/11/17 09:08:12;;;;;;;12.80;4.83;;;3.90;99.90;;;;;;4222376;28;20454;-79
2023/11/17 09:10:14;;;;;;;9.73;3.90;;;3.90;99.90;;;;;;4219944;28;20874;-78
2023/11/17 09:12:17;;;;;;;5.57;3.10;;;3.90;99.90;;;;;;4222973;28;20806;-79
2023/11/17 09:14:19;;;;;;;4.97;3.23;;;3.90;99.90;;;;;;4222748;28;20439;-80
2023/11/17 09:16:21;;;;;;;6.53;2.87;;;4.00;99.90;;;;;;4221303;28;20530;-78
2023/11/17 09:18:23;;;;;;;4.07;2.47;;;3.90;99.90;;;;;;4222624;28;20492;-82
2023/11/17 09:20:27;;;;;;;3.43;2.10;;;4.00;99.90;;;;;;4221735;28;20451;-79
2023/11/17 09:22:30;;;;;;;5.00;2.27;;;4.20;99.90;;;;;;4227504;27;20433;-79
2023/11/17 09:24:32;;;;;;;6.00;2.40;;;4.00;99.90;;;;;;4222179;28;20498;-77
2023/11/17 09:26:33;;;;;;;6.67;2.63;;;4.10;99.90;;;;;;4218669;28;20460;-78
2023/11/17 09:28:35;;;;;;;6.47;2.53;;;4.10;99.90;;;;;;4224169;28;20447;-77
2023/11/17 09:30:37;;;;;;;3.90;2.53;;;4.10;99.90;;;;;;4219688;28;20208;-77
2023/11/17 09:32:41;;;;;;;5.83;2.33;;;4.10;99.90;;;;;;4217447;28;20440;-78
2023/11/17 09:34:43;;;;;;;4.47;2.60;;;4.10;99.90;;;;;;4223213;28;20898;-78
2023/11/17 09:36:47;;;;;;;4.90;2.77;;;4.20;99.90;;;;;;4214686;28;20504;-77
2023/11/17 09:38:49;;;;;;;3.97;2.70;;;4.20;99.90;;;;;;4219878;28;20435;-78
2023/11/17 09:40:51;;;;;;;5.27;2.60;;;4.20;99.90;;;;;;4223018;28;20444;-77
2023/11/17 09:42:54;;;;;;;4.97;2.30;;;4.20;99.90;;;;;;4220095;28;20446;-79
2023/11/17 09:44:56;;;;;;;4.63;2.73;;;4.20;99.90;;;;;;4220062;28;20835;-79
2023/11/17 09:47:07;;;;;;;2.80;2.03;;;4.30;99.90;;;;;;4217680;28;20465;-78
2023/11/17 09:49:14;;;;;;;8.40;2.93;;;4.40;99.90;;;;;;4222075;28;20448;-77
2023/11/17 09:51:15;;;;;;;8.23;3.10;;;4.40;99.90;;;;;;4216553;28;20483;-77
2023/11/17 09:53:24;;;;;;;7.77;3.60;;;4.40;99.90;;;;;;4219681;28;20451;-78
2023/11/17 09:55:27;;;;;;;10.47;3.63;;;4.50;99.90;;;;;;4216191;28;20492;-78
2023/11/17 09:57:30;;;;;;;9.60;3.87;;;4.50;99.90;;;;;;4219400;28;20454;-78
2023/11/17 09:59:32;;;;;;;9.83;3.97;;;4.50;99.90;;;;;;4214846;28;20497;-80
2023/11/17 10:01:36;;;;;;;5.77;2.90;;;4.50;99.90;;;;;;4219526;28;20790;-79
2023/11/17 10:03:41;;;;;;;9.63;3.90;;;4.50;99.90;;;;;;4219945;28;20987;-78
2023/11/17 10:05:43;;;;;;;12.20;4.43;;;4.50;99.90;;;;;;4217428;28;20988;-79
2023/11/17 10:07:47;;;;;;;8.30;3.50;;;4.60;99.90;;;;;;4219650;28;20505;-79
2023/11/17 10:09:51;;;;;;;5.67;2.70;;;4.60;99.90;;;;;;4220108;28;20476;-79
2023/11/17 10:11:55;;;;;;;7.77;3.53;;;4.60;99.90;;;;;;4220182;28;20507;-80
2023/11/17 10:14:00;;;;;;;8.70;4.13;;;4.60;99.90;;;;;;4221664;28;20424;-80
2023/11/17 10:16:07;;;;;;;8.23;3.50;;;4.60;99.90;;;;;;4226029;28;20479;-79
2023/11/17 10:18:13;;;;;;;9.10;3.17;;;4.60;99.90;;;;;;4220176;28;20466;-81
2023/11/17 10:20:18;;;;;;;8.33;4.27;;;4.70;99.90;;;;;;4221567;28;20468;-82
2023/11/17 10:22:22;;;;;;;10.23;4.10;;;4.70;99.90;;;;;;4228979;28;20494;-84
2023/11/17 10:24:28;;;;;;;4.53;3.07;;;4.70;99.90;;;;;;4225259;28;20470;-78
2023/11/17 10:26:31;;;;;;;10.00;4.20;;;4.70;99.90;;;;;;4218025;28;20474;-79
2023/11/17 10:28:36;;;;;;;6.00;3.37;;;4.80;99.90;;;;;;4222158;28;20437;-80
2023/11/17 10:30:41;;;;;;;7.40;3.43;;;4.80;99.90;;;;;;4222893;28;20495;-81
2023/11/17 10:32:50;;;;;;;5.57;2.87;;;4.90;99.90;;;;;;4227047;27;20502;-80
2023/11/17 10:35:11;;;;;;;7.43;3.10;;;5.00;99.90;;;;;;4228406;28;20446;-81
2023/11/17 10:37:15;;;;;;;8.87;4.37;;;5.10;99.90;;;;;;4222175;28;20473;-80
2023/11/17 10:39:18;;;;;;;5.80;3.60;;;5.10;99.90;;;;;;4221467;28;20544;-81
2023/11/17 10:41:24;;;;;;;3.90;2.43;;;5.10;99.90;;;;;;4216726;27;20545;-79
2023/11/17 10:43:27;;;;;;;5.97;2.40;;;5.20;99.90;;;;;;4221615;28;20814;-79
2023/11/17 10:45:28;;;;;;;4.90;2.90;;;5.20;99.90;;;;;;4229082;27;20452;-80